Elizabeth, West Virginia
Current Conditions -  °F | °C
As of 10:53 AM on Thursday 29 Jan 2015 (Local Time) from KPKB Reporting Station
Light Rain Light Rain  
Wind Chill: 28°   Ceiling: 2800
Heat Index: 34°   Visibility: 5mi
Dew Point: 28°   Wind: 7mph
Humidity: 79%   Direction: 200°SSW
Pressure: 29.98"   Gusts: NA
Location:  39.06°N, 81.4°W
Report Text: KPKB 291553Z 20006KT 5SM -RA BKN028 OVC060 01/M02 A2998 RMK AO2 SLP161 P0009 T00111022
Loading
Personal Weather Stations






























Interactive Weather Map New forecast layout! Learn more

10-Day Weather Forecast

Advertisements
Track Severe Weather on mobile